Time;durP1;ratioP1;P1;durP2;ratioP2;P2;SDS_P1;SDS_P2;PMS_P1;PMS_P2;Temp;Humidity;BMP_temperature;BMP_pressure;BME280_temperature;BME280_humidity;BME280_pressure;Samples;Min_cycle;Max_cycle;Signal;HPM_P1;HPM_P2
2024/01/25 00:01:38;;;;;;;4.50;2.50;;;11.00;82.10;;;;;;4993924;28;20390;-82
2024/01/25 00:04:04;;;;;;;5.57;1.92;;;11.00;82.10;;;;;;5011218;28;20050;-81
2024/01/25 00:06:30;;;;;;;4.07;2.25;;;10.90;82.10;;;;;;5010111;28;20053;-83
2024/01/25 00:08:56;;;;;;;5.03;2.13;;;10.90;82.00;;;;;;4995447;28;20485;-81
2024/01/25 00:11:21;;;;;;;6.57;2.80;;;10.90;82.10;;;;;;5010875;28;20099;-85
2024/01/25 00:13:47;;;;;;;5.75;2.45;;;10.90;82.10;;;;;;5009924;28;20655;-86
2024/01/25 00:16:13;;;;;;;6.35;2.28;;;10.90;82.10;;;;;;5009875;28;20076;-81
2024/01/25 00:18:39;;;;;;;4.70;2.10;;;10.90;82.10;;;;;;5008283;28;20022;-81
2024/01/25 00:21:04;;;;;;;5.13;2.05;;;10.90;82.10;;;;;;5008272;28;20065;-85
2024/01/25 00:23:30;;;;;;;3.95;1.90;;;10.90;82.10;;;;;;5009908;28;20030;-81
2024/01/25 00:25:58;;;;;;;4.32;1.88;;;10.90;82.10;;;;;;4992222;28;20022;-87
2024/01/25 00:28:25;;;;;;;5.03;2.08;;;10.80;82.00;;;;;;4991600;28;20022;-86
2024/01/25 00:30:51;;;;;;;4.00;2.00;;;10.90;82.10;;;;;;5023015;28;20065;-82
2024/01/25 00:33:16;;;;;;;5.32;2.13;;;10.80;82.00;;;;;;5007533;28;20030;-75
2024/01/25 00:35:42;;;;;;;6.10;2.05;;;10.80;82.00;;;;;;4993792;28;20230;-82
2024/01/25 00:38:09;;;;;;;5.90;2.38;;;10.80;82.00;;;;;;4990608;28;20160;-76
2024/01/25 00:40:35;;;;;;;6.03;2.33;;;10.80;82.10;;;;;;5011113;28;20041;-75
2024/01/25 00:43:01;;;;;;;4.10;2.05;;;10.80;82.10;;;;;;4993609;28;20072;-82
2024/01/25 00:45:27;;;;;;;4.75;1.98;;;10.80;82.10;;;;;;4991763;28;20038;-83
2024/01/25 00:47:53;;;;;;;3.67;2.00;;;10.80;82.10;;;;;;5008842;28;20030;-86
2024/01/25 00:50:20;;;;;;;4.95;1.75;;;10.70;82.00;;;;;;5010918;28;20084;-86
2024/01/25 00:52:49;;;;;;;3.50;2.05;;;10.70;82.10;;;;;;5012133;28;20623;-83
2024/01/25 00:55:16;;;;;;;4.53;2.45;;;10.70;82.70;;;;;;4997997;28;20063;-82
2024/01/25 00:57:42;;;;;;;5.15;2.10;;;10.70;82.10;;;;;;5003250;28;20565;-75
2024/01/25 01:00:08;;;;;;;6.28;2.22;;;10.70;82.10;;;;;;5006741;28;20153;-86
2024/01/25 01:02:43;;;;;;;3.80;1.83;;;10.70;82.10;;;;;;5005932;28;20060;-83
2024/01/25 01:05:10;;;;;;;4.60;2.03;;;10.60;82.10;;;;;;4991326;28;20651;-83
2024/01/25 01:07:36;;;;;;;3.05;1.65;;;10.60;82.10;;;;;;5009716;28;20034;-75
2024/01/25 01:10:03;;;;;;;3.50;1.85;;;10.60;82.10;;;;;;4993418;28;20022;-81
2024/01/25 01:12:30;;;;;;;4.47;1.85;;;10.60;82.10;;;;;;5008194;28;20109;-86
2024/01/25 01:14:56;;;;;;;4.28;1.80;;;10.60;82.10;;;;;;4991158;28;20027;-82
2024/01/25 01:17:22;;;;;;;2.97;1.70;;;10.60;82.10;;;;;;5019306;28;20026;-75
2024/01/25 01:19:47;;;;;;;4.18;1.80;;;10.50;82.10;;;;;;4988048;28;20109;-82
2024/01/25 01:22:13;;;;;;;5.78;2.35;;;10.60;82.10;;;;;;4988450;28;20033;-81
2024/01/25 01:24:39;;;;;;;4.75;1.80;;;10.50;82.10;;;;;;4990342;28;20030;-75
2024/01/25 01:27:05;;;;;;;4.05;1.73;;;10.50;82.10;;;;;;4985850;28;20449;-82
2024/01/25 01:29:31;;;;;;;6.22;2.20;;;10.50;82.10;;;;;;4988083;28;20429;-85
2024/01/25 01:31:57;;;;;;;3.72;1.63;;;10.50;82.10;;;;;;4990446;28;20042;-83
2024/01/25 01:34:23;;;;;;;4.28;1.83;;;10.40;82.10;;;;;;4990939;28;20034;-85
2024/01/25 01:36:49;;;;;;;3.47;1.90;;;10.40;82.10;;;;;;5003352;28;20052;-80
2024/01/25 01:39:15;;;;;;;3.83;1.83;;;10.40;82.10;;;;;;4989513;28;20022;-81
2024/01/25 01:41:40;;;;;;;5.57;1.90;;;10.40;82.10;;;;;;4992710;28;20462;-82
2024/01/25 01:44:06;;;;;;;4.28;1.83;;;10.40;82.10;;;;;;5011836;28;20065;-81
2024/01/25 01:46:37;;;;;;;3.20;1.73;;;10.40;82.10;;;;;;4992777;28;20050;-85
2024/01/25 01:49:04;;;;;;;3.60;1.95;;;10.40;82.10;;;;;;4994637;28;20032;-76
2024/01/25 01:51:32;;;;;;;4.82;2.22;;;10.40;82.20;;;;;;4993561;28;20034;-82
2024/01/25 01:54:00;;;;;;;4.40;1.50;;;10.30;82.20;;;;;;5010885;28;20058;-81
2024/01/25 01:56:28;;;;;;;3.42;1.90;;;10.30;82.10;;;;;;4992283;28;20034;-86
2024/01/25 01:58:59;;;;;;;4.13;1.88;;;10.30;82.20;;;;;;5004450;28;20385;-83
2024/01/25 02:01:25;;;;;;;4.00;1.58;;;10.30;82.20;;;;;;5008771;28;20097;-81
2024/01/25 02:03:51;;;;;;;5.70;2.25;;;10.30;82.10;;;;;;4992052;28;20060;-82
2024/01/25 02:06:18;;;;;;;4.28;2.05;;;10.20;82.10;;;;;;4992188;28;20029;-75
2024/01/25 02:08:44;;;;;;;3.63;2.13;;;10.20;82.10;;;;;;5005332;28;20068;-83
2024/01/25 02:11:12;;;;;;;4.15;1.60;;;10.20;82.20;;;;;;5004194;28;20030;-86
2024/01/25 02:13:38;;;;;;;4.30;2.20;;;10.20;82.20;;;;;;5007446;28;20030;-76
2024/01/25 02:16:07;;;;;;;4.47;2.00;;;10.20;82.20;;;;;;5011552;28;20026;-86
2024/01/25 02:18:33;;;;;;;4.60;1.95;;;10.20;82.20;;;;;;5005367;28;20401;-83
2024/01/25 02:20:59;;;;;;;3.25;1.73;;;10.10;82.20;;;;;;4992743;28;20428;-76
2024/01/25 02:23:25;;;;;;;3.75;1.75;;;10.10;82.20;;;;;;5004473;28;20386;-86
2024/01/25 02:25:50;;;;;;;3.95;1.90;;;10.10;82.20;;;;;;4991554;28;20060;-86
2024/01/25 02:28:16;;;;;;;3.97;1.90;;;10.10;82.20;;;;;;4991515;28;20117;-82
2024/01/25 02:30:42;;;;;;;4.20;2.00;;;10.10;82.20;;;;;;4988259;28;20049;-86
2024/01/25 02:33:08;;;;;;;3.63;1.85;;;10.00;82.20;;;;;;5005825;28;20595;-80
2024/01/25 02:35:34;;;;;;;5.22;2.10;;;10.00;82.20;;;;;;4992127;28;20026;-80
2024/01/25 02:37:59;;;;;;;3.13;2.00;;;10.00;82.20;;;;;;4989924;28;20073;-83
2024/01/25 02:40:25;;;;;;;3.05;1.73;;;10.00;82.20;;;;;;4991421;28;20152;-86
2024/01/25 02:42:51;;;;;;;3.65;2.05;;;10.00;82.20;;;;;;4990714;28;20528;-85
2024/01/25 02:45:17;;;;;;;4.25;1.83;;;10.00;82.30;;;;;;4986740;28;20022;-76
2024/01/25 02:47:43;;;;;;;6.40;2.20;;;10.00;82.40;;;;;;5008959;28;20030;-83
2024/01/25 02:50:09;;;;;;;4.50;2.03;;;9.90;82.20;;;;;;4990880;28;20026;-86
2024/01/25 02:52:35;;;;;;;4.88;2.30;;;9.90;82.20;;;;;;5010661;28;20026;-82
2024/01/25 02:55:01;;;;;;;3.65;1.55;;;9.90;82.20;;;;;;5004887;28;20505;-85
2024/01/25 02:57:26;;;;;;;6.10;2.58;;;9.90;82.20;;;;;;4990591;28;20104;-76
2024/01/25 02:59:52;;;;;;;3.40;1.88;;;9.90;82.30;;;;;;5004377;28;20034;-81
2024/01/25 03:02:21;;;;;;;5.13;2.35;;;9.90;82.30;;;;;;4986244;28;20018;-83
2024/01/25 03:04:46;;;;;;;4.53;2.15;;;9.80;82.20;;;;;;4990132;28;21448;-83
2024/01/25 03:07:12;;;;;;;5.78;1.73;;;9.80;82.20;;;;;;4992306;28;20032;-81
2024/01/25 03:09:38;;;;;;;5.18;1.95;;;9.80;82.20;;;;;;5008371;28;20032;-84
2024/01/25 03:12:04;;;;;;;4.68;2.05;;;9.70;82.20;;;;;;5003623;28;20025;-81
2024/01/25 03:14:30;;;;;;;4.35;1.92;;;9.70;82.20;;;;;;4990942;28;20117;-75
2024/01/25 03:16:55;;;;;;;4.40;2.15;;;9.70;82.20;;;;;;4989686;28;20194;-75
2024/01/25 03:19:25;;;;;;;4.75;2.15;;;9.70;82.20;;;;;;5005051;28;21473;-83
2024/01/25 03:21:51;;;;;;;3.97;2.33;;;9.70;82.30;;;;;;4990933;28;20021;-86
2024/01/25 03:24:17;;;;;;;5.32;2.17;;;9.70;82.20;;;;;;5006154;28;20026;-86
2024/01/25 03:26:43;;;;;;;2.65;1.52;;;9.70;82.20;;;;;;4987499;28;20014;-75
2024/01/25 03:29:09;;;;;;;3.67;1.92;;;9.60;82.20;;;;;;4989249;28;20093;-83
2024/01/25 03:31:36;;;;;;;3.72;1.90;;;9.60;82.20;;;;;;5005090;28;20397;-75
2024/01/25 03:34:02;;;;;;;3.80;1.88;;;9.60;82.30;;;;;;5006763;28;20034;-83
2024/01/25 03:36:28;;;;;;;4.65;1.95;;;9.60;82.30;;;;;;4987873;28;20042;-81
2024/01/25 03:38:53;;;;;;;3.78;1.95;;;9.50;82.20;;;;;;4991130;28;20037;-81
2024/01/25 03:41:20;;;;;;;5.18;1.85;;;9.50;82.20;;;;;;4995428;28;20069;-83
2024/01/25 03:43:45;;;;;;;5.28;2.00;;;9.50;82.20;;;;;;5003222;28;20033;-75
2024/01/25 03:46:12;;;;;;;5.78;2.00;;;9.50;82.20;;;;;;4990724;28;20019;-75
2024/01/25 03:48:38;;;;;;;5.60;2.28;;;9.50;82.20;;;;;;4989707;28;20580;-83
2024/01/25 03:51:04;;;;;;;5.22;2.00;;;9.50;82.20;;;;;;4989175;28;20414;-75
2024/01/25 03:53:29;;;;;;;4.75;1.75;;;9.50;82.20;;;;;;5007358;28;20081;-83
2024/01/25 03:55:55;;;;;;;5.63;2.33;;;9.50;82.20;;;;;;4994393;28;20028;-85
2024/01/25 03:58:21;;;;;;;5.13;2.15;;;9.40;82.20;;;;;;5012511;28;20034;-76
2024/01/25 04:00:47;;;;;;;4.03;2.20;;;9.40;82.20;;;;;;4990888;28;20026;-82
2024/01/25 04:03:14;;;;;;;5.20;1.85;;;9.40;82.20;;;;;;4994098;28;20273;-82
2024/01/25 04:05:40;;;;;;;3.35;1.63;;;9.40;82.30;;;;;;4990617;28;20029;-75
2024/01/25 04:08:06;;;;;;;4.95;2.10;;;9.40;82.30;;;;;;5008347;28;20173;-75
2024/01/25 04:10:32;;;;;;;3.88;1.83;;;9.30;82.20;;;;;;4992395;28;20022;-86
2024/01/25 04:13:00;;;;;;;4.32;1.92;;;9.30;82.30;;;;;;5006738;28;20061;-86
2024/01/25 04:15:26;;;;;;;5.80;2.25;;;9.30;82.30;;;;;;5006604;28;20034;-81
2024/01/25 04:17:55;;;;;;;3.63;1.95;;;9.30;82.20;;;;;;4994432;28;20104;-83
2024/01/25 04:20:22;;;;;;;2.47;1.70;;;9.30;82.30;;;;;;5006921;28;20545;-84
2024/01/25 04:22:47;;;;;;;4.57;1.80;;;9.30;82.30;;;;;;5009738;28;20073;-83
2024/01/25 04:25:13;;;;;;;4.45;2.00;;;9.20;82.30;;;;;;4994712;28;20019;-86
2024/01/25 04:27:39;;;;;;;4.30;1.85;;;9.20;82.30;;;;;;4991429;28;20045;-75
2024/01/25 04:30:06;;;;;;;3.97;1.83;;;9.20;82.30;;;;;;4989386;28;20030;-75
2024/01/25 04:32:32;;;;;;;5.20;1.92;;;9.20;82.30;;;;;;5007173;28;20030;-81
2024/01/25 04:34:58;;;;;;;3.80;1.77;;;9.20;82.30;;;;;;5007395;28;20502;-75
2024/01/25 04:37:26;;;;;;;4.18;1.75;;;9.10;82.30;;;;;;5006187;28;20065;-82
2024/01/25 04:39:52;;;;;;;4.60;2.00;;;9.20;82.40;;;;;;4973672;28;20033;-86
2024/01/25 04:42:17;;;;;;;4.53;2.03;;;9.10;82.30;;;;;;4990873;28;20034;-83
2024/01/25 04:44:43;;;;;;;3.70;2.00;;;9.10;82.30;;;;;;5006390;28;20041;-81
2024/01/25 04:47:09;;;;;;;5.05;2.25;;;9.10;82.30;;;;;;5022606;28;20088;-80
2024/01/25 04:49:36;;;;;;;3.38;1.90;;;9.10;82.30;;;;;;5009560;28;20037;-81
2024/01/25 04:52:02;;;;;;;5.72;1.85;;;9.00;82.30;;;;;;5000729;28;20496;-84
2024/01/25 04:54:28;;;;;;;4.43;2.10;;;9.10;82.40;;;;;;4993495;28;20022;-84
2024/01/25 04:56:54;;;;;;;4.65;2.10;;;9.00;82.30;;;;;;5006501;28;20478;-81
2024/01/25 04:59:20;;;;;;;3.65;1.88;;;9.00;82.40;;;;;;5009143;28;20402;-75
2024/01/25 05:01:46;;;;;;;4.15;1.95;;;9.00;82.30;;;;;;4990442;28;20234;-81
2024/01/25 05:04:11;;;;;;;3.67;2.00;;;9.00;82.40;;;;;;4991098;28;20021;-81
2024/01/25 05:06:37;;;;;;;3.63;2.08;;;8.90;82.40;;;;;;5008175;28;20764;-81
2024/01/25 05:09:03;;;;;;;5.15;2.38;;;8.90;82.40;;;;;;5005865;28;20064;-83
2024/01/25 05:11:29;;;;;;;4.82;2.05;;;8.90;82.40;;;;;;4992122;28;20476;-81
2024/01/25 05:13:54;;;;;;;4.63;1.80;;;8.90;82.40;;;;;;5008397;28;20478;-82
2024/01/25 05:16:20;;;;;;;4.63;2.00;;;8.90;82.40;;;;;;4987799;28;20024;-78
2024/01/25 05:18:46;;;;;;;5.03;1.98;;;8.80;82.40;;;;;;4989869;28;20058;-86
2024/01/25 05:21:12;;;;;;;3.97;2.00;;;8.80;82.40;;;;;;5005443;28;20064;-83
2024/01/25 05:23:37;;;;;;;4.47;1.92;;;8.80;82.40;;;;;;4989403;28;20022;-75
2024/01/25 05:26:03;;;;;;;5.75;2.40;;;8.80;82.40;;;;;;5003516;28;20494;-85
2024/01/25 05:28:29;;;;;;;4.45;1.90;;;8.80;82.40;;;;;;4989338;28;20029;-83
2024/01/25 05:30:55;;;;;;;4.95;2.35;;;8.70;82.40;;;;;;5021708;28;20502;-81
2024/01/25 05:33:21;;;;;;;6.50;2.60;;;8.70;82.40;;;;;;5003217;28;20030;-85
2024/01/25 05:35:46;;;;;;;4.60;2.20;;;8.70;82.50;;;;;;5009829;28;20025;-86
2024/01/25 05:38:12;;;;;;;3.53;1.90;;;8.70;82.50;;;;;;5002043;28;20042;-75
2024/01/25 05:40:38;;;;;;;4.40;2.08;;;8.70;82.50;;;;;;5003739;28;20068;-84
2024/01/25 05:43:05;;;;;;;3.25;1.85;;;8.70;82.50;;;;;;4994174;28;20084;-75
2024/01/25 05:45:30;;;;;;;4.80;2.35;;;8.70;82.50;;;;;;4987752;28;20026;-87
2024/01/25 05:47:57;;;;;;;3.47;1.85;;;8.60;82.50;;;;;;5017732;28;20474;-86
2024/01/25 05:50:24;;;;;;;2.47;1.70;;;8.60;82.50;;;;;;4997379;28;20409;-83
2024/01/25 05:52:49;;;;;;;3.55;2.20;;;8.60;82.50;;;;;;4981234;28;20030;-80
2024/01/25 05:55:15;;;;;;;5.95;2.35;;;8.60;82.60;;;;;;5004411;28;20038;-83
2024/01/25 05:57:42;;;;;;;5.35;2.40;;;8.50;82.50;;;;;;4992836;28;20084;-86
2024/01/25 06:00:11;;;;;;;3.80;2.05;;;8.60;82.60;;;;;;4990961;28;20041;-82
2024/01/25 06:02:37;;;;;;;4.15;2.20;;;8.50;82.50;;;;;;5009752;28;20025;-83
2024/01/25 06:05:03;;;;;;;4.45;2.28;;;8.50;82.50;;;;;;5005217;28;20478;-81
2024/01/25 06:07:28;;;;;;;3.92;1.90;;;8.50;82.50;;;;;;4993481;28;20034;-80
2024/01/25 06:09:54;;;;;;;4.88;2.35;;;8.50;82.50;;;;;;5009324;28;20045;-75
2024/01/25 06:12:20;;;;;;;5.30;2.45;;;8.50;82.60;;;;;;4997991;28;20105;-85
2024/01/25 06:14:46;;;;;;;5.15;2.33;;;8.40;82.60;;;;;;4986872;28;20101;-84
2024/01/25 06:17:11;;;;;;;5.15;1.95;;;8.40;82.90;;;;;;5011009;28;20026;-81
2024/01/25 06:19:43;;;;;;;4.57;2.17;;;8.40;82.60;;;;;;4994944;28;20037;-83
2024/01/25 06:22:12;;;;;;;5.00;2.10;;;8.40;82.60;;;;;;4979674;28;20049;-84
2024/01/25 06:24:37;;;;;;;3.45;1.90;;;8.40;82.60;;;;;;5007110;28;20029;-84
2024/01/25 06:27:03;;;;;;;5.07;2.10;;;8.40;82.60;;;;;;4992985;28;20022;-88
2024/01/25 06:29:29;;;;;;;4.82;2.20;;;8.30;82.60;;;;;;5005408;28;20080;-87
2024/01/25 06:31:55;;;;;;;4.00;2.10;;;8.30;82.60;;;;;;5007566;28;20045;-75
2024/01/25 06:34:20;;;;;;;5.10;2.83;;;8.30;82.70;;;;;;5006490;28;20056;-82
2024/01/25 06:36:52;;;;;;;4.40;2.10;;;8.30;82.70;;;;;;4995243;28;20030;-83
2024/01/25 06:39:18;;;;;;;3.25;2.28;;;8.30;82.80;;;;;;4991450;28;20025;-87
2024/01/25 06:41:44;;;;;;;4.65;2.38;;;8.20;82.70;;;;;;4991502;28;20026;-77
2024/01/25 06:44:09;;;;;;;6.05;2.22;;;8.20;82.70;;;;;;4988170;28;20027;-77
2024/01/25 06:46:35;;;;;;;5.50;2.00;;;8.20;82.80;;;;;;5025152;28;20076;-84
2024/01/25 06:49:01;;;;;;;4.07;2.22;;;8.20;82.80;;;;;;5009829;28;20041;-88
2024/01/25 06:51:27;;;;;;;4.68;2.38;;;8.20;82.80;;;;;;5009593;28;20029;-81
2024/01/25 06:53:52;;;;;;;5.57;2.30;;;8.10;82.80;;;;;;4992962;28;20022;-82
2024/01/25 06:56:18;;;;;;;3.63;1.90;;;8.10;82.80;;;;;;5001010;28;20078;-76
2024/01/25 06:58:44;;;;;;;4.13;2.10;;;8.10;82.80;;;;;;5007787;28;20026;-83
2024/01/25 07:01:10;;;;;;;4.15;2.28;;;8.10;82.80;;;;;;4985592;28;20121;-77
2024/01/25 07:03:35;;;;;;;3.88;2.15;;;8.10;82.80;;;;;;5007087;28;20026;-87
2024/01/25 07:06:02;;;;;;;4.45;1.80;;;8.10;82.80;;;;;;5011049;28;20030;-85
2024/01/25 07:08:27;;;;;;;4.50;2.22;;;8.10;82.80;;;;;;4994818;28;20038;-77
2024/01/25 07:10:53;;;;;;;3.78;2.20;;;8.00;82.80;;;;;;5013952;28;20096;-87
2024/01/25 07:13:20;;;;;;;5.90;2.38;;;8.00;82.80;;;;;;4992335;28;20541;-83
2024/01/25 07:15:46;;;;;;;3.22;2.00;;;8.00;82.80;;;;;;4997716;28;20518;-82
2024/01/25 07:18:12;;;;;;;4.53;2.05;;;8.00;82.80;;;;;;4998080;28;20401;-81
2024/01/25 07:20:46;;;;;;;4.90;2.05;;;8.00;82.80;;;;;;5028398;28;20028;-84
2024/01/25 07:23:12;;;;;;;4.45;2.42;;;8.00;82.90;;;;;;4997255;28;20033;-83
2024/01/25 07:25:37;;;;;;;4.80;1.90;;;7.90;82.80;;;;;;4994142;28;20053;-84
2024/01/25 07:28:03;;;;;;;4.05;2.08;;;7.90;82.80;;;;;;4995018;28;20037;-84
2024/01/25 07:30:29;;;;;;;4.15;1.95;;;7.90;82.80;;;;;;4997585;28;20038;-84
2024/01/25 07:32:55;;;;;;;5.80;2.15;;;7.90;82.90;;;;;;4988158;28;20070;-81
2024/01/25 07:35:23;;;;;;;4.88;2.20;;;7.90;82.90;;;;;;5013923;28;20462;-86
2024/01/25 07:37:49;;;;;;;4.47;2.60;;;7.90;82.90;;;;;;5010427;28;20064;-75
2024/01/25 07:40:14;;;;;;;4.45;2.17;;;7.80;82.80;;;;;;4996524;28;20034;-83
2024/01/25 07:42:40;;;;;;;6.63;2.58;;;7.80;82.80;;;;;;5016678;28;20040;-83
2024/01/25 07:45:07;;;;;;;4.28;1.98;;;7.80;82.90;;;;;;5002142;28;20026;-85
2024/01/25 07:47:33;;;;;;;4.22;2.10;;;7.80;82.90;;;;;;5005829;28;20026;-75
2024/01/25 07:49:59;;;;;;;4.93;2.30;;;7.80;82.90;;;;;;4999477;28;20033;-87
2024/01/25 07:52:24;;;;;;;5.55;2.67;;;7.80;82.90;;;;;;4997105;28;20326;-75
2024/01/25 07:54:53;;;;;;;6.60;2.42;;;7.70;83.40;;;;;;5004302;28;20391;-81
2024/01/25 07:57:19;;;;;;;3.80;2.22;;;7.70;82.90;;;;;;5020921;28;20521;-87
2024/01/25 07:59:44;;;;;;;5.10;2.50;;;7.70;82.80;;;;;;5003008;28;20397;-87
2024/01/25 08:02:10;;;;;;;3.80;2.20;;;7.70;82.80;;;;;;5000740;28;20082;-83
2024/01/25 08:04:36;;;;;;;4.70;2.58;;;7.70;82.80;;;;;;4993493;28;20137;-75
2024/01/25 08:07:02;;;;;;;5.72;2.55;;;7.60;82.80;;;;;;5000893;28;20022;-83
2024/01/25 08:09:28;;;;;;;5.28;2.45;;;7.70;82.90;;;;;;5007731;28;20029;-81
2024/01/25 08:11:54;;;;;;;4.03;2.20;;;7.60;82.80;;;;;;5009491;28;20026;-88
2024/01/25 08:14:19;;;;;;;5.60;2.30;;;7.70;82.90;;;;;;4993798;28;20032;-81
2024/01/25 08:16:45;;;;;;;4.80;2.65;;;7.60;82.80;;;;;;5005034;28;20034;-75
2024/01/25 08:19:11;;;;;;;6.28;2.53;;;7.60;82.80;;;;;;5010320;28;20365;-86
2024/01/25 08:21:37;;;;;;;3.60;2.00;;;7.60;82.80;;;;;;5009265;28;20034;-86
2024/01/25 08:24:04;;;;;;;3.85;2.17;;;7.60;82.80;;;;;;4998032;28;20015;-85
2024/01/25 08:26:29;;;;;;;5.28;2.22;;;7.60;82.80;;;;;;4991196;28;20074;-87
2024/01/25 08:28:55;;;;;;;5.68;2.60;;;7.60;82.80;;;;;;4998509;28;20064;-84
2024/01/25 08:31:21;;;;;;;7.10;2.83;;;7.60;82.80;;;;;;4995342;28;20045;-81
2024/01/25 08:33:47;;;;;;;5.03;2.50;;;7.60;82.80;;;;;;4999930;28;20026;-75
2024/01/25 08:36:16;;;;;;;4.40;3.20;;;7.60;82.80;;;;;;4993583;28;20068;-85
2024/01/25 08:38:42;;;;;;;5.07;2.38;;;7.60;82.90;;;;;;4994834;28;20053;-84
2024/01/25 08:41:08;;;;;;;5.95;3.10;;;7.60;82.90;;;;;;5001481;28;20065;-84
2024/01/25 08:43:34;;;;;;;5.07;2.38;;;7.60;82.90;;;;;;5013316;28;20120;-83
2024/01/25 08:46:01;;;;;;;4.55;2.40;;;7.60;82.90;;;;;;5015006;28;20132;-80
2024/01/25 08:48:27;;;;;;;3.33;2.45;;;7.60;82.90;;;;;;4988639;28;20037;-79
2024/01/25 08:50:54;;;;;;;5.63;2.42;;;7.50;82.80;;;;;;5013632;28;20026;-74
2024/01/25 08:53:27;;;;;;;4.20;2.15;;;7.60;82.90;;;;;;5002683;28;20030;-83
2024/01/25 08:55:53;;;;;;;4.18;2.35;;;7.50;82.90;;;;;;4988345;28;20021;-80
2024/01/25 08:58:19;;;;;;;4.80;2.53;;;7.50;82.90;;;;;;5007743;28;20026;-82
2024/01/25 09:00:45;;;;;;;4.20;2.20;;;7.50;82.90;;;;;;4994730;28;20176;-79
2024/01/25 09:03:11;;;;;;;4.15;2.30;;;7.50;82.90;;;;;;5003891;28;20109;-75
2024/01/25 09:05:40;;;;;;;5.07;2.45;;;7.50;82.90;;;;;;5007448;28;20033;-90
2024/01/25 09:08:07;;;;;;;4.50;2.10;;;7.50;82.90;;;;;;4995791;28;20034;-79
2024/01/25 09:10:33;;;;;;;5.18;2.47;;;7.50;82.90;;;;;;4996477;28;20029;-89
2024/01/25 09:12:58;;;;;;;3.83;2.28;;;7.50;82.90;;;;;;5013194;28;20117;-90
2024/01/25 09:15:30;;;;;;;4.53;2.15;;;7.50;82.90;;;;;;4992055;28;20026;-82
2024/01/25 09:17:56;;;;;;;6.40;2.63;;;7.60;83.00;;;;;;4986810;28;20019;-76
2024/01/25 09:20:22;;;;;;;4.03;2.40;;;7.50;82.80;;;;;;5011149;28;20508;-80
2024/01/25 09:22:47;;;;;;;3.33;2.13;;;7.50;82.90;;;;;;4994974;28;20052;-90
2024/01/25 09:25:13;;;;;;;4.22;2.05;;;7.50;82.90;;;;;;4993034;28;20030;-82
2024/01/25 09:27:39;;;;;;;5.95;2.70;;;7.60;82.90;;;;;;5006601;28;20030;-75
2024/01/25 09:30:08;;;;;;;4.18;2.10;;;7.60;82.90;;;;;;5004557;28;20544;-76
2024/01/25 09:32:34;;;;;;;3.17;1.90;;;7.60;82.90;;;;;;5005191;28;20413;-89
2024/01/25 09:35:00;;;;;;;4.70;2.17;;;7.60;82.90;;;;;;5009791;28;20026;-82
2024/01/25 09:37:25;;;;;;;3.20;2.35;;;7.60;82.90;;;;;;4989998;28;20110;-89
2024/01/25 09:39:51;;;;;;;3.95;2.17;;;7.60;82.90;;;;;;5012035;28;20093;-80
2024/01/25 09:42:18;;;;;;;4.07;2.40;;;7.60;82.90;;;;;;4991962;28;20034;-90
2024/01/25 09:44:44;;;;;;;4.32;2.78;;;7.60;82.90;;;;;;4985455;28;20021;-75
2024/01/25 09:47:13;;;;;;;3.35;2.22;;;7.60;82.90;;;;;;5000582;28;20030;-80
2024/01/25 09:49:39;;;;;;;4.63;2.55;;;7.60;83.00;;;;;;5008568;28;20091;-89
2024/01/25 09:52:05;;;;;;;3.65;2.25;;;7.60;82.90;;;;;;5006672;28;20030;-90
2024/01/25 09:54:35;;;;;;;5.10;2.40;;;7.60;83.00;;;;;;4991865;28;20157;-82
2024/01/25 09:57:17;;;;;;;3.83;2.20;;;7.60;82.90;;;;;;5020514;28;20186;-82
2024/01/25 09:59:43;;;;;;;3.75;2.20;;;7.70;83.00;;;;;;4997347;28;20045;-82
2024/01/25 10:02:11;;;;;;;2.83;2.03;;;7.70;82.90;;;;;;5026407;28;20036;-80
2024/01/25 10:04:37;;;;;;;2.80;1.90;;;7.70;83.00;;;;;;5011272;28;20070;-75
2024/01/25 10:07:03;;;;;;;3.55;2.17;;;7.70;83.00;;;;;;5001842;28;20022;-81
2024/01/25 10:09:42;;;;;;;5.75;2.83;;;7.70;82.90;;;;;;4987201;28;20491;-75
2024/01/25 10:12:07;;;;;;;3.78;2.28;;;7.70;82.90;;;;;;5000123;28;20026;-81
2024/01/25 10:14:33;;;;;;;3.67;2.45;;;7.70;82.90;;;;;;4992840;28;20037;-75
2024/01/25 10:17:00;;;;;;;4.90;2.40;;;7.80;82.90;;;;;;4986213;28;20099;-89
2024/01/25 10:19:27;;;;;;;4.82;2.38;;;7.80;83.00;;;;;;5017291;28;20567;-75
2024/01/25 10:21:53;;;;;;;4.28;2.33;;;7.80;82.90;;;;;;5014393;28;20030;-75
2024/01/25 10:24:19;;;;;;;5.10;2.78;;;7.80;82.90;;;;;;5009627;28;20444;-88
2024/01/25 10:26:44;;;;;;;2.97;2.10;;;7.80;83.50;;;;;;4991577;28;20026;-80
2024/01/25 10:29:10;;;;;;;3.85;2.08;;;7.90;82.90;;;;;;5004884;28;20042;-83
2024/01/25 10:31:42;;;;;;;5.07;2.33;;;7.80;82.90;;;;;;4990553;28;20053;-80
2024/01/25 10:34:12;;;;;;;5.00;2.10;;;7.90;82.90;;;;;;4990933;28;20034;-82
2024/01/25 10:36:40;;;;;;;3.83;2.33;;;7.90;82.90;;;;;;4993336;28;20030;-82
2024/01/25 10:39:08;;;;;;;4.35;2.72;;;7.90;82.90;;;;;;5007261;28;20010;-80
2024/01/25 10:41:34;;;;;;;5.07;2.50;;;8.00;82.90;;;;;;4996588;28;20037;-75
2024/01/25 10:44:01;;;;;;;5.50;2.65;;;7.90;82.90;;;;;;4994664;28;20022;-91
2024/01/25 10:46:29;;;;;;;4.68;2.30;;;8.00;82.90;;;;;;5009212;28;20061;-82
2024/01/25 10:48:58;;;;;;;5.15;3.15;;;8.00;82.90;;;;;;4980388;28;20073;-80
2024/01/25 10:51:26;;;;;;;3.22;2.20;;;8.00;82.90;;;;;;4997018;28;20076;-81
2024/01/25 10:53:53;;;;;;;4.57;2.40;;;8.10;83.60;;;;;;5011197;28;20029;-76
2024/01/25 10:56:18;;;;;;;4.95;2.90;;;8.10;82.90;;;;;;5004974;28;20026;-83
2024/01/25 10:58:45;;;;;;;4.55;2.42;;;8.10;82.90;;;;;;4993865;28;20060;-82
2024/01/25 11:01:11;;;;;;;5.22;2.50;;;8.10;82.90;;;;;;4990109;28;20031;-76
2024/01/25 11:03:38;;;;;;;4.47;2.53;;;8.20;82.90;;;;;;4988821;28;20030;-75
2024/01/25 11:06:09;;;;;;;4.88;2.63;;;8.20;82.90;;;;;;5006835;28;20041;-80
2024/01/25 11:08:38;;;;;;;6.05;2.60;;;8.20;83.00;;;;;;5007336;28;20062;-82
2024/01/25 11:11:07;;;;;;;5.85;2.88;;;8.20;82.90;;;;;;4991180;28;20035;-81
2024/01/25 11:13:33;;;;;;;5.75;3.17;;;8.20;82.90;;;;;;5002587;28;20026;-90
2024/01/25 11:16:18;;;;;;;5.38;2.80;;;8.30;82.90;;;;;;4993837;28;20034;-83
2024/01/25 11:18:54;;;;;;;5.95;2.40;;;8.30;83.00;;;;;;5002396;28;20042;-89
2024/01/25 11:21:27;;;;;;;4.15;2.35;;;8.30;82.90;;;;;;5004549;28;20018;-76
2024/01/25 11:24:03;;;;;;;6.07;2.42;;;8.40;82.90;;;;;;5002850;28;20023;-82
2024/01/25 11:26:32;;;;;;;5.65;2.95;;;8.30;82.90;;;;;;4985589;28;20122;-94
2024/01/25 11:29:00;;;;;;;6.00;2.92;;;8.40;82.90;;;;;;4975599;28;20152;-75
2024/01/25 11:31:26;;;;;;;5.40;2.60;;;8.40;82.90;;;;;;5001447;28;20034;-77
2024/01/25 11:34:02;;;;;;;4.93;2.90;;;8.40;82.90;;;;;;4993930;28;20037;-82
2024/01/25 11:36:28;;;;;;;5.75;2.70;;;8.50;83.00;;;;;;5018658;28;20038;-82
2024/01/25 11:38:54;;;;;;;7.60;3.20;;;8.50;82.90;;;;;;4993170;28;20025;-82
2024/01/25 11:41:20;;;;;;;6.72;3.28;;;8.50;82.90;;;;;;5000865;28;20026;-76
2024/01/25 11:43:49;;;;;;;4.05;2.65;;;8.50;82.90;;;;;;4993069;28;20022;-77
2024/01/25 11:46:15;;;;;;;6.32;3.22;;;8.50;82.90;;;;;;4999468;28;20026;-93
2024/01/25 11:48:41;;;;;;;5.22;2.75;;;8.60;82.90;;;;;;5011079;28;20095;-89
2024/01/25 11:51:09;;;;;;;5.45;3.10;;;8.60;82.80;;;;;;5009256;28;20130;-77
2024/01/25 11:53:35;;;;;;;5.55;2.72;;;8.60;82.80;;;;;;4993975;28;20084;-89
2024/01/25 11:56:02;;;;;;;7.63;3.33;;;8.70;82.80;;;;;;4998649;28;20026;-83
2024/01/25 11:58:28;;;;;;;5.90;3.22;;;8.70;82.80;;;;;;5006305;28;20034;-88
2024/01/25 12:00:54;;;;;;;5.18;3.53;;;8.70;82.80;;;;;;5001100;28;20029;-90
2024/01/25 12:03:20;;;;;;;4.85;3.13;;;8.80;82.90;;;;;;5012609;28;20087;-82
2024/01/25 12:05:58;;;;;;;6.28;3.30;;;8.80;82.90;;;;;;5008801;28;20045;-82
2024/01/25 12:08:24;;;;;;;5.55;3.22;;;8.80;82.90;;;;;;5005804;28;20038;-82
2024/01/25 12:10:50;;;;;;;5.63;3.10;;;8.80;82.80;;;;;;5000460;28;20034;-82
2024/01/25 12:13:16;;;;;;;6.15;3.55;;;8.80;82.80;;;;;;4992918;28;20017;-83
2024/01/25 12:15:42;;;;;;;5.65;3.05;;;8.90;82.80;;;;;;5009667;28;20061;-76
2024/01/25 12:18:08;;;;;;;8.13;3.13;;;8.90;82.80;;;;;;4995172;28;20057;-89
2024/01/25 12:20:36;;;;;;;5.63;3.03;;;8.90;82.80;;;;;;4987269;28;20364;-83
2024/01/25 12:23:02;;;;;;;7.43;3.15;;;9.00;82.90;;;;;;4982242;28;20034;-83
2024/01/25 12:25:28;;;;;;;5.35;2.92;;;9.00;82.80;;;;;;4990770;28;20033;-89
2024/01/25 12:27:53;;;;;;;5.53;3.65;;;9.00;82.80;;;;;;4978979;28;20026;-82
2024/01/25 12:30:19;;;;;;;5.57;3.10;;;9.10;82.80;;;;;;4995636;28;20025;-82
2024/01/25 12:32:49;;;;;;;5.82;3.33;;;9.10;82.80;;;;;;4984964;28;20046;-89
2024/01/25 12:35:15;;;;;;;6.40;3.25;;;9.10;82.80;;;;;;4993409;28;20553;-76
2024/01/25 12:37:40;;;;;;;6.72;3.47;;;9.10;82.70;;;;;;5006298;28;20421;-90
2024/01/25 12:40:07;;;;;;;9.30;3.80;;;9.10;82.70;;;;;;5004886;28;20090;-89
2024/01/25 12:42:33;;;;;;;5.55;3.70;;;9.20;82.80;;;;;;5004396;28;20031;-82
2024/01/25 12:44:59;;;;;;;7.00;3.65;;;9.20;82.70;;;;;;4995476;28;20045;-90
2024/01/25 12:47:25;;;;;;;7.63;3.78;;;9.20;82.70;;;;;;5002849;28;20042;-83
2024/01/25 12:49:51;;;;;;;7.18;3.85;;;9.30;82.80;;;;;;5013156;28;20359;-76
2024/01/25 12:52:17;;;;;;;8.25;4.40;;;9.30;82.80;;;;;;4995044;28;20029;-90